createdAt,value
2022-11-20T13:42:45.632Z,38.03
2022-11-20T13:43:48.223Z,35.13
2022-11-20T13:44:51.654Z,32.58
2022-11-20T13:45:59.546Z,34.67
2022-11-20T13:47:20.607Z,34.63
2022-11-20T13:48:22.564Z,32.50
2022-11-20T13:50:33.174Z,35.42
2022-11-20T13:51:37.994Z,31.92
2022-11-20T13:52:43.252Z,36.28
2022-11-20T13:53:52.905Z,37.22
2022-11-20T13:54:58.485Z,32.20
2022-11-20T13:56:00.805Z,35.38
2022-11-20T13:57:09.002Z,37.55
2022-11-20T13:58:20.328Z,35.03
2022-11-20T13:59:29.317Z,34.75
2022-11-20T14:00:30.597Z,36.40
2022-11-20T14:01:31.958Z,37.88
2022-11-20T14:02:33.262Z,39.30
2022-11-20T14:04:57.887Z,34.05
2022-11-20T14:06:02.985Z,38.95
2022-11-20T14:07:06.086Z,38.60
2022-11-20T14:08:11.063Z,38.25
2022-11-20T14:09:13.414Z,31.88
2022-11-20T14:10:20.333Z,39.90
2022-11-20T14:11:22.312Z,34.92
2022-11-20T14:13:24.827Z,33.20
2022-11-20T14:14:26.419Z,38.60
2022-11-20T14:15:29.581Z,36.38
2022-11-20T14:16:31.530Z,40.28
2022-11-20T14:18:33.325Z,39.80
2022-11-20T14:19:34.579Z,35.78
2022-11-20T14:20:37.261Z,42.17
2022-11-20T14:21:38.418Z,38.00
2022-11-20T14:22:39.250Z,39.72
2022-11-20T14:23:40.473Z,41.70
2022-11-20T14:24:41.374Z,37.92
2022-11-20T14:25:43.113Z,37.47
2022-11-20T14:26:44.527Z,42.63
2022-11-20T14:27:48.533Z,37.75
2022-11-20T14:28:51.419Z,44.75
2022-11-20T14:29:52.867Z,43.45
2022-11-20T14:30:54.263Z,44.20
2022-11-20T14:31:56.113Z,36.10
2022-11-20T14:33:00.911Z,40.58
2022-11-20T14:34:02.586Z,40.83
2022-11-20T14:35:08.994Z,37.05
2022-11-20T14:36:17.729Z,39.00
2022-11-20T14:37:20.380Z,40.95
2022-11-20T14:38:24.633Z,36.38
2022-11-20T14:39:29.552Z,44.08
2022-11-20T14:40:31.601Z,35.33
2022-11-20T14:42:33.984Z,35.50
2022-11-20T14:43:37.958Z,40.30
2022-11-20T14:44:39.789Z,34.92
2022-11-20T14:45:41.044Z,38.42
2022-11-20T14:46:42.864Z,40.97
2022-11-20T14:47:43.899Z,38.28
2022-11-20T14:48:47.118Z,44.35
2022-11-20T14:49:48.438Z,38.15
2022-11-20T14:50:49.601Z,40.80
2022-11-20T14:51:59.097Z,40.00
2022-11-20T14:53:01.030Z,39.53
2022-11-20T18:21:11.638Z,46.67
2022-11-20T18:22:13.348Z,44.50
2022-11-20T18:23:14.361Z,46.28
2022-11-20T18:24:15.545Z,45.83
2022-11-20T18:25:16.753Z,40.28
2022-11-20T18:26:17.972Z,43.47
2022-11-20T18:27:20.061Z,36.70
2022-11-20T18:29:23.389Z,31.73
2022-11-20T18:30:24.909Z,44.85
2022-11-20T18:31:26.551Z,42.60
2022-11-20T18:32:27.801Z,33.35
2022-11-20T18:33:29.922Z,40.20
2022-11-20T18:34:31.095Z,41.30
2022-11-20T18:35:32.314Z,33.40
2022-11-20T18:36:33.993Z,37.08
2022-11-20T18:37:35.333Z,39.53
2022-11-20T18:38:39.833Z,36.15
2022-11-20T18:39:41.217Z,34.33
2022-11-20T18:40:42.450Z,41.97
2022-11-20T18:42:01.862Z,31.45
2022-11-20T18:43:35.771Z,37.00
2022-11-20T18:44:52.895Z,35.00
2022-11-20T18:46:01.877Z,36.08
2022-11-20T18:47:09.576Z,37.78
2022-11-20T18:48:15.397Z,34.22
2022-11-20T18:49:16.620Z,30.58
2022-11-20T18:50:18.458Z,34.03
2022-11-20T18:51:19.528Z,32.53
2022-11-20T18:52:22.752Z,29.87
2022-11-20T18:53:23.945Z,32.20
2022-11-20T18:54:25.374Z,33.65
2022-11-20T18:55:45.237Z,33.22
2022-11-20T18:56:46.674Z,31.38
2022-11-20T18:57:47.886Z,33.67
2022-11-20T18:58:48.750Z,32.65
2022-11-20T18:59:50.364Z,28.08
2022-11-20T19:00:51.617Z,34.83
2022-11-20T19:01:52.658Z,29.38
2022-11-20T19:02:54.293Z,35.67
2022-11-20T19:03:55.285Z,33.92
2022-11-20T19:04:56.633Z,32.17
2022-11-20T19:05:58.145Z,34.08
2022-11-20T19:06:59.327Z,36.72
2022-11-20T19:08:01.417Z,31.35
2022-11-20T19:09:03.865Z,33.13
2022-11-20T19:10:05.884Z,35.42
2022-11-20T19:12:08.401Z,29.60
2022-11-20T19:13:09.581Z,35.92
2022-11-20T19:14:10.790Z,35.55
2022-11-20T19:15:11.983Z,34.10
2022-11-20T19:16:13.971Z,32.28
2022-11-20T19:18:17.572Z,29.40
2022-11-20T19:19:18.947Z,34.95
2022-11-20T19:20:20.145Z,29.98
2022-11-20T19:21:22.050Z,34.05
2022-11-20T19:22:23.203Z,32.83
2022-11-20T19:23:24.861Z,36.20
2022-11-20T19:24:27.642Z,33.38
2022-11-20T19:25:32.798Z,33.85
2022-11-20T19:26:37.929Z,31.20
2022-11-20T19:27:39.289Z,32.00
2022-11-20T19:28:40.253Z,32.65
2022-11-20T19:29:41.500Z,32.50
2022-11-20T19:30:42.345Z,35.40
2022-11-20T19:31:43.499Z,29.77
2022-11-20T19:32:44.417Z,35.13
2022-11-20T19:33:45.939Z,32.37
2022-11-20T19:34:47.088Z,32.33
2022-11-20T19:35:49.082Z,37.30
2022-11-20T19:37:51.276Z,27.42
2022-11-20T19:38:53.277Z,33.08
2022-11-20T19:40:59.033Z,33.60
2022-11-20T19:42:00.182Z,35.03
2022-11-20T19:43:01.265Z,34.80
2022-11-20T19:44:03.253Z,34.63
2022-11-20T19:46:05.151Z,28.67
2022-11-20T19:47:11.552Z,33.20
2022-11-20T19:48:14.977Z,29.75
2022-11-20T19:49:16.177Z,35.73
2022-11-20T19:50:17.052Z,30.13
2022-11-20T19:51:19.099Z,36.70
2022-11-20T19:53:20.888Z,31.80
2022-11-20T19:54:22.847Z,33.20
2022-11-20T19:55:23.757Z,34.03
2022-11-20T19:56:25.373Z,35.92
2022-11-20T19:57:26.188Z,33.10
2022-11-20T19:58:27.635Z,33.42
2022-11-20T19:59:28.872Z,32.45
2022-11-20T20:00:32.795Z,37.80
2022-11-20T20:01:34.943Z,32.97
2022-11-20T20:02:35.803Z,37.33
2022-11-20T20:03:37.437Z,36.23
2022-11-20T20:04:38.599Z,33.92
2022-11-20T20:05:39.446Z,34.13
2022-11-20T20:06:40.965Z,37.58
2022-11-20T20:07:41.834Z,38.25
2022-11-20T20:08:43.473Z,34.07
2022-11-20T20:09:45.327Z,41.03
2022-11-20T20:10:46.187Z,35.13
2022-11-20T20:11:47.410Z,35.40
2022-11-20T20:12:48.256Z,35.20
2022-11-20T20:13:49.517Z,38.45
2022-11-20T20:14:50.377Z,33.33
2022-11-20T20:15:51.546Z,36.35
2022-11-20T20:16:52.382Z,34.78
2022-11-20T20:17:53.626Z,37.30
2022-11-20T20:18:55.722Z,32.30
2022-11-20T20:19:56.883Z,36.75
2022-11-20T20:21:03.730Z,38.08
2022-11-20T20:22:05.103Z,34.85
2022-11-20T20:23:06.684Z,41.50
2022-11-20T20:24:08.965Z,36.17
2022-11-20T20:25:10.595Z,39.47
2022-11-20T20:26:11.794Z,40.53
2022-11-20T20:27:12.948Z,41.53
2022-11-20T20:28:14.085Z,45.08
2022-11-20T20:29:15.022Z,35.78
2022-11-20T20:30:16.254Z,44.47
2022-11-20T20:31:18.916Z,35.63
2022-11-20T20:32:20.083Z,39.75
2022-11-20T20:33:21.847Z,40.85
2022-11-20T20:34:23.012Z,43.65
2022-11-20T20:35:24.122Z,44.88
2022-11-20T20:36:25.480Z,35.28
2022-11-20T20:37:26.663Z,45.80
2022-11-20T20:38:27.817Z,42.35
2022-11-20T20:39:29.022Z,37.03
2022-11-20T20:40:30.547Z,41.53
2022-11-20T20:41:31.742Z,40.28
2022-11-20T20:42:32.576Z,42.50
2022-11-20T20:43:54.529Z,41.85
2022-11-20T20:45:12.801Z,44.40
2022-11-20T20:46:14.042Z,41.47
2022-11-20T20:47:14.876Z,41.33
2022-11-20T20:48:16.853Z,46.27
2022-11-20T20:50:18.925Z,35.95
2022-11-20T20:51:19.786Z,41.47
2022-11-20T20:52:21.111Z,42.37
2022-11-20T20:53:22.341Z,41.85
2022-11-20T20:54:23.189Z,42.15
2022-11-20T20:55:24.907Z,46.78
2022-11-20T20:56:26.681Z,45.40
2022-11-20T20:57:28.012Z,37.17
2022-11-20T20:58:29.664Z,44.47
2022-11-20T20:59:30.813Z,40.67
2022-11-20T21:00:31.633Z,51.40
2022-11-20T21:01:32.890Z,48.37
2022-11-20T21:02:33.777Z,40.70
2022-11-20T21:03:35.416Z,48.20
2022-11-20T21:04:36.569Z,46.78
2022-11-20T21:05:37.447Z,42.28
2022-11-20T21:06:38.635Z,53.55
2022-11-20T21:07:59.496Z,48.60
2022-11-20T21:09:00.780Z,41.75
2022-11-20T21:10:01.678Z,44.15
2022-11-20T21:11:04.284Z,42.22
2022-11-20T21:12:05.942Z,44.38
2022-11-20T21:13:07.098Z,49.92
2022-11-20T21:14:08.258Z,35.08
2022-11-20T21:15:09.548Z,47.03
2022-11-20T21:16:11.379Z,42.03
2022-11-20T21:17:15.277Z,40.10
2022-11-20T21:18:17.262Z,48.45
2022-11-20T21:19:18.532Z,46.50
2022-11-20T21:20:38.375Z,39.75
2022-11-20T21:22:03.139Z,49.72
2022-11-20T21:23:07.670Z,41.60
2022-11-20T21:24:08.809Z,49.90
2022-11-20T21:25:09.632Z,47.80
2022-11-20T21:26:10.795Z,49.13
2022-11-20T21:27:12.610Z,39.45
2022-11-20T21:28:18.020Z,45.78
2022-11-20T21:29:19.560Z,43.65
2022-11-20T21:30:20.394Z,46.40
2022-11-20T21:31:22.785Z,46.93
2022-11-20T21:32:23.642Z,47.55
2022-11-20T21:33:24.825Z,50.33
2022-11-20T21:34:26.282Z,51.70
2022-11-20T21:35:27.324Z,51.83
2022-11-20T21:36:29.381Z,51.95
2022-11-20T21:37:30.242Z,49.72
2022-11-20T21:38:31.453Z,50.67
2022-11-20T21:39:32.600Z,47.83
2022-11-20T21:40:33.461Z,50.95
2022-11-20T21:41:34.590Z,51.53
2022-11-20T21:42:36.090Z,52.03
2022-11-20T21:43:37.556Z,46.58
2022-11-20T21:44:38.387Z,44.50
2022-11-20T21:45:39.547Z,46.47
2022-11-20T21:46:41.219Z,47.95
2022-11-20T21:47:42.398Z,49.47
2022-11-20T21:48:44.778Z,50.72
2022-11-20T21:49:45.615Z,37.95
2022-11-20T21:50:46.797Z,53.73
2022-11-20T21:51:47.642Z,51.33
2022-11-20T21:52:48.780Z,54.13
2022-11-20T21:53:50.267Z,54.58
2022-11-20T21:54:51.454Z,49.65
2022-11-20T21:55:52.661Z,56.22
2022-11-20T21:56:53.802Z,45.00
2022-11-20T21:57:55.293Z,53.35
2022-11-20T21:58:56.590Z,57.78
2022-11-20T21:59:57.472Z,50.47
2022-11-20T22:00:58.631Z,52.57
2022-11-20T22:01:59.561Z,54.15
2022-11-20T22:03:00.760Z,56.20
2022-11-20T22:04:01.879Z,52.85
2022-11-20T22:05:03.063Z,56.90
2022-11-20T22:06:04.729Z,41.92
2022-11-20T22:07:06.242Z,57.05
2022-11-20T22:08:07.124Z,53.28
2022-11-20T22:09:09.501Z,56.85
2022-11-20T22:10:14.388Z,62.95
2022-11-20T22:11:20.088Z,57.47
2022-11-20T22:12:21.770Z,55.53
2022-11-20T22:13:42.477Z,57.13
2022-11-20T22:14:45.177Z,47.92
2022-11-20T22:16:00.189Z,53.70
2022-11-20T22:17:02.135Z,58.25
2022-11-20T22:18:12.265Z,59.00
2022-11-20T22:19:15.228Z,48.60
2022-11-20T22:20:16.114Z,49.88
2022-11-20T22:21:18.146Z,60.20
2022-11-20T22:23:19.930Z,50.53
2022-11-20T22:24:22.214Z,59.13
2022-11-20T22:25:23.445Z,62.17
2022-11-20T22:26:25.474Z,60.07
2022-11-20T22:28:27.943Z,57.75
2022-11-20T22:29:28.811Z,66.50
2022-11-20T22:30:30.058Z,65.03
2022-11-20T22:31:31.061Z,53.05
2022-11-20T22:32:32.188Z,68.65
2022-11-20T22:33:33.466Z,65.03
2022-11-20T22:34:34.614Z,55.58
2022-11-20T22:35:35.465Z,62.03
2022-11-20T22:36:37.007Z,64.07
2022-11-20T22:37:37.838Z,67.75
2022-11-20T22:38:39.770Z,61.35
2022-11-20T22:40:43.206Z,57.10
2022-11-20T22:41:44.053Z,55.50
2022-11-20T22:42:45.428Z,68.70
2022-11-20T22:43:46.996Z,68.78
2022-11-20T22:44:48.150Z,57.90
2022-11-20T22:45:49.019Z,54.42
2022-11-20T22:46:50.207Z,61.87
2022-11-20T22:47:51.037Z,48.60
2022-11-20T22:48:52.735Z,60.38
2022-11-20T22:49:53.581Z,59.95
2022-11-20T22:50:59.804Z,54.97
2022-11-20T22:52:00.946Z,60.63
2022-11-20T22:53:01.860Z,60.30
2022-11-20T22:54:03.387Z,60.40
2022-11-20T22:55:04.558Z,61.63
2022-11-20T22:56:06.392Z,50.85
2022-11-20T22:57:07.561Z,62.97
2022-11-20T22:58:08.426Z,72.03
2022-11-20T22:59:10.480Z,55.90
2022-11-20T23:00:12.133Z,63.80
2022-11-20T23:01:13.846Z,58.33
2022-11-20T23:02:14.661Z,66.38
2022-11-20T23:03:15.836Z,58.95
2022-11-20T23:04:17.007Z,46.03
2022-11-20T23:05:17.830Z,64.45
2022-11-20T23:06:19.547Z,55.83
2022-11-20T23:07:20.375Z,62.05
2022-11-20T23:08:21.561Z,50.75
2022-11-20T23:09:22.421Z,58.72
2022-11-20T23:10:23.569Z,53.28
2022-11-20T23:11:25.617Z,56.28
2022-11-20T23:13:27.840Z,48.25
2022-11-20T23:14:30.022Z,57.58
2022-11-20T23:15:32.352Z,55.03
2022-11-20T23:16:33.860Z,58.47
2022-11-20T23:17:34.685Z,59.28
2022-11-20T23:18:36.086Z,56.83
2022-11-20T23:19:36.915Z,65.43
2022-11-20T23:20:38.045Z,46.53
2022-11-20T23:21:40.377Z,61.35
2022-11-20T23:22:41.226Z,51.58
2022-11-20T23:23:43.171Z,53.42
2022-11-20T23:24:43.986Z,50.42
2022-11-20T23:25:45.119Z,55.83
2022-11-20T23:26:47.245Z,54.40
2022-11-20T23:27:48.390Z,59.10
2022-11-20T23:28:49.446Z,55.38
2022-11-20T23:29:51.288Z,48.05
2022-11-20T23:30:52.127Z,62.03
2022-11-20T23:31:53.377Z,55.00
2022-11-20T23:32:54.214Z,64.25
2022-11-20T23:33:55.564Z,55.40
2022-11-20T23:34:56.394Z,54.85
2022-11-20T23:35:57.532Z,55.00
2022-11-20T23:37:00.390Z,48.60
2022-11-20T23:38:01.543Z,59.58
2022-11-20T23:39:02.878Z,52.03
2022-11-20T23:40:04.203Z,56.28
2022-11-20T23:41:05.347Z,55.92
2022-11-20T23:42:06.227Z,60.28
2022-11-20T23:43:16.359Z,63.27
2022-11-20T23:44:17.200Z,50.97
2022-11-20T23:45:19.026Z,59.53
2022-11-20T23:46:20.236Z,68.15
2022-11-20T23:47:21.399Z,57.72
2022-11-20T23:48:23.182Z,51.95
2022-11-20T23:49:24.317Z,58.72
2022-11-20T23:50:25.891Z,55.75
2022-11-20T23:51:27.045Z,51.15
2022-11-20T23:52:27.915Z,53.42
2022-11-20T23:53:29.239Z,59.83
2022-11-20T23:54:30.057Z,51.45
2022-11-20T23:55:31.224Z,59.70
2022-11-20T23:56:32.359Z,43.92
2022-11-20T23:57:33.224Z,54.70
2022-11-20T23:58:35.468Z,51.47
2022-11-20T23:59:36.341Z,58.95
